Tiempo atmosférico en la estación meteorológica de San Sebastián De La Gomera, Santa Cruz de Tenerife (15 m.)



Fecha
DESCASC
Temp. máxima en grados centígrados (hora)
DESCASC
Temp. mínima en grados centígrados (hora)
DESCASC
Temp. media en grados centígrados
DESCASC
Racha de viento máxima en m/sg (hora)
DESCASC
Velocidad máxima media en intervalos de 10 minutos(hora)
DESCASC
Precipitaciones diarias en mm
DESCASC
Precipitaciones de 00:00 a 06:00 en mm
DESCASC
Precipitaciones de 06:00 a 12:00 en mm
DESCASC
Precipitaciones de 12:00 a 18:00 en mm
DESCASC
Precipitaciones de 18:00 a 24:00 en mm
DESCASC
14-12-2019 22.2 (12:00) 17.4 (05:20) 19.8 7.78 (21:20) 3.61 (20:20) 0 0 0 0 0
13-12-2019 21.1 (14:20) 17.3 (07:50) 19.2 15.28 (15:00) 6.11 (15:40) 0 0 0 0 0
12-12-2019 23 (13:50) 18.4 (23:40) 20.7 16.67 (17:10) 8.06 (17:10) 0 0 0 0 0
11-12-2019 23.2 (12:30) 18.8 (00:00) 21 14.17 (17:00) 6.11 (17:00) 0 0 0 0 0
10-12-2019 22.9 (13:50) 16.1 (07:40) 19.5 12.22 (19:40) 5.83 (19:40) 0 0 0 0 0
09-12-2019 23.5 (14:30) 18 (07:50) 20.8 17.5 (20:00) 5.83 (10:30) 0 0 0 0 0
08-12-2019 23.5 (13:50) 18.9 (00:00) 21.2 16.11 (22:00) 6.67 (20:40) 0 0 0 0 0
07-12-2019 22.4 (12:50) 18.4 (00:00) 20.4 15.56 (11:40) 7.22 (20:20) 0 0 0 0 0
06-12-2019 21.4 (12:20) 17.7 (00:00) 19.6 17.78 (06:30) 8.61 (10:50) 0.4 0 0.3 0.1 0
05-12-2019 20.5 (11:50) 16.4 (00:00) 18.4 17.22 (18:40) 6.67 (19:40) 3.5 1.9 0.8 0.4 0.4
04-12-2019 22.4 (15:50) 17.7 (23:40) 20.1 10.56 (17:00) 4.44 (18:00) 4.1 0 0 0 4.1
03-12-2019 22.5 (13:50) 17 (00:00) 19.8 13.06 (08:30) 5.56 (04:50) 1.4 1.2 0.2 0 0
02-12-2019 22.1 (11:40) 19.1 (00:00) 20.6 12.5 (21:50) 5.28 (18:30) 0 0 0 0 0
01-12-2019 24.9 (15:20) 20 (00:00) 22.4 13.89 (06:40) 6.67 (06:30) 0 0 0 0 0
30-11-2019 26.9 (14:20) 20.4 (00:00) 23.6 9.72 (13:10) 5.83 (22:20) 0 0 0 0 0
29-11-2019 29.5 (13:20) 20.2 (00:00) 24.9 11.39 (15:10) 5.83 (15:10) 0 0 0 0 0
28-11-2019 24.9 (11:50) 18.3 (06:00) 21.6 8.89 (17:00) 5.83 (17:20) 0 0 0 0 0
27-11-2019 23.9 (11:50) 19.7 (00:00) 21.8 10.56 (14:30) 5 (14:30) 0 0 0 0 0
26-11-2019 23.7 (14:40) 19.3 (00:00) 21.5 10.28 (19:40) 5.83 (15:10) 0 0 0 0 0
25-11-2019 23.7 (11:50) 19.1 (06:30) 21.4 9.17 (12:10) 4.17 (00:10) 0 0 0 0 0
24-11-2019 24.1 (14:10) 19.7 (00:00) 21.9 11.11 (12:10) 5.28 (17:10) 0 0 0 0 0
23-11-2019 25.3 (13:40) 20.4 (00:00) 22.8 15.28 (21:10) 5.28 (09:30) 0.2 0 0.2 0 0
22-11-2019 24.9 (12:50) 19.7 (00:00) 22.3 10.28 (07:30) 5.28 (07:40) 0.1 0.1 0 0 0
21-11-2019 24.8 (15:10) 17.7 (00:00) 21.3 5.28 (00:10) 2.78 (06:50) 0 0 0 0 0
20-11-2019 24.3 (14:40) 16.9 (07:10) 20.6 7.5 (18:20) 4.44 (18:10) 0 0 0 0 0
19-11-2019 23.8 (13:00) 18.6 (00:00) 21.2 15.83 (01:30) 4.44 (12:10) 0 0 0 0 0
18-11-2019 23.6 (12:50) 19.2 (00:00) 21.4 13.33 (05:50) 6.11 (05:20) 0 0 0 0 0
17-11-2019 23.1 (14:30) 18.5 (00:00) 20.8 16.67 (18:50) 5.83 (22:20) 0 0 0 0 0
16-11-2019 22.4 (13:40) 18.2 (00:00) 20.3 18.33 (22:40) 8.06 (11:00) 0 0 0 0 0
15-11-2019 22.6 (13:10) 19.1 (00:00) 20.9 18.06 (00:10) 7.5 (00:10) 0 0 0 0 0

Gráficas

Temp. máximas Temp. mínimas Temp. medias Precipitaciones Rachas de viento máximas Velocidades máximas media en intervalos de 10 minutos

Datos horarios

Fecha y hora oficial Temperatura (ºC) Velocidad del viento (km/h) Dirección del viento Racha (km/h) Dirección de racha Precipitación (mm) Presión (hPa) Tendencia (hPa) Humedad (%)
2019-12-14 23:00:00 19.6 4 Noroeste 23 Norte 0 1018.6 0.6 83
2019-12-14 22:00:00 19.6 11 Noroeste 28 Norte 0 1018 -0.1 83
2019-12-14 21:00:00 19.5 10 Norte 27 Norte 0 1018.1 -0.6 80
2019-12-14 20:00:00 19.5 12 Norte 27 Noroeste 0 1018 -0.5 81
2019-12-14 19:00:00 19.8 7 Norte 16 Este 0 1018.1 -0.3 81
2019-12-14 18:00:00 19.9 0 Calma 10 Sur 0 1018.7 0.3 78
2019-12-14 17:00:00 20.1 6 Sur 13 Sur 0 1018.5 -0.1 77
2019-12-14 16:00:00 20.1 9 Sur 16 Sur 0 1018.4 -1 76
2019-12-14 15:00:00 19.9 11 Sur 19 Sur 0 1018.4 -2 76
2019-12-14 14:00:00 20.8 9 Sur 18 Sur 0 1018.6 -2 76
2019-12-14 13:00:00 20.8 10 Sur 17 Sur 0 1019.4 -1.3 72
2019-12-14 12:00:00 22.2 4 Sudeste 16 Sudeste 0 1020.4 0 71
2019-12-14 11:00:00 21.6 4 Este 14 Este 0 1020.6 0.2 73
2019-12-14 10:00:00 20.8 5 Nordeste 13 Nordeste 0 1020.7 0.7 74
2019-12-14 09:00:00 18.4 4 Norte 9 Norte 0 1020.4 0.2 80
2019-12-14 08:00:00 17.4 5 Noroeste 15 Norte 0 1020.4 0.2 83
2019-12-14 07:00:00 18.2 4 Norte 11 Noroeste 0 1020 -0.2 80
2019-12-14 06:00:00 17.7 3 Noroeste 9 Norte 0 1020.2 -0.3 85
2019-12-14 05:00:00 18 4 Noroeste 21 Norte 0 1020.2 -0.6 84
2019-12-14 04:00:00 18.3 5 Norte 21 Norte 0 1020.2 -1.2 80
2019-12-14 03:00:00 18.2 3 Noroeste 15 Noroeste 0 1020.5 -1.3 79
2019-12-14 02:00:00 18.3 6 Noroeste 16 Oeste 0 1020.8 -1.3 79
2019-12-14 01:00:00 18.6 7 Norte 24 Norte 0 1021.4 -0.5 80
2019-12-14 00:00:00 18.7 10 Noroeste 33 Norte 0 1021.8 -0.3 80
2019-12-13 23:00:00 18.9 9 Norte 36 Noroeste 0 1022.1 0.6 76
2019-12-13 22:00:00 18.8 12 Noroeste 32 Oeste 0 1021.9 0.6 74
2019-12-13 21:00:00 19 13 Norte 35 Noroeste 0 1022.1 0.8 74
2019-12-13 20:00:00 19.1 13 Noroeste 36 Noroeste 0 1021.5 -0.2 72
2019-12-13 19:00:00 19.2 15 Noroeste 36 Nordeste 0 1021.3 0.1 76
2019-12-13 18:00:00 19.4 15 Noroeste 39 Oeste 0 1021.3 -0.2 72
2019-12-13 17:00:00 19.8 15 Noroeste 37 Noroeste 0 1021.7 -0.6 69
2019-12-13 16:00:00 20.1 14 Noroeste 43 Noroeste 0 1021.2 -2.3 69
2019-12-13 15:00:00 20.3 18 Noroeste 55 Oeste 0 1021.5 -3 71
2019-12-13 14:00:00 20.5 17 Noroeste 55 Oeste 0 1022.3 -2.9 68
2019-12-13 13:00:00 20.3 19 Noroeste 40 Noroeste 0 1023.5 -1.4 72
2019-12-13 12:00:00 20.7 15 Noroeste 40 Noroeste 0 1024.5 0.2 68
2019-12-13 11:00:00 19.7 17 Noroeste 41 Noroeste 0 1025.2 1.1 70
2019-12-13 10:00:00 19.1 13 Norte 42 Noroeste 0 1024.9 1 71
2019-12-13 09:00:00 18.4 17 Noroeste 44 Norte 0 1024.3 0.8 71
2019-12-13 08:00:00 17.5 17 Noroeste 44 Norte 0 1024.1 0.5 74
2019-12-13 07:00:00 17.6 18 Norte 53 Norte 0 1023.9 0.2 74
2019-12-13 06:00:00 17.9 18 Noroeste 42 Oeste 0 1023.5 -0.4 72
2019-12-13 05:00:00 17.9 17 Noroeste 44 Norte 0 1023.6 -0.4 73
2019-12-13 04:00:00 18 15 Norte 46 Noroeste 0 1023.7 -0.5 75
2019-12-13 03:00:00 18.1 12 Noroeste 39 Noroeste 0 1023.9 -0.8 72
2019-12-13 02:00:00 18.2 18 Noroeste 43 Norte 0 1024 -0.9 77
2019-12-13 01:00:00 18.4 18 Noroeste 49 Oeste 0 1024.2 -0.2 71
2019-12-13 00:00:00 18.5 18 Noroeste 41 Noroeste 0 1024.7 0.3 72
2019-12-12 23:00:00 18.6 19 Norte 41 Noroeste 0 1024.9 1 75
2019-12-12 22:00:00 18.8 19 Noroeste 48 Oeste 0 1024.4 1 77
2019-12-12 21:00:00 19 19 Noroeste 58 Norte 0 1024.4 1.4 79
2019-12-12 20:00:00 18.9 21 Noroeste 51 Noroeste 0 1023.9 0.6 81
2019-12-12 19:00:00 19.1 24 Noroeste 60 Oeste 0 1023.4 0.1 86
2019-12-12 18:00:00 19.5 19 Norte 60 Noroeste 0 1023 -0.3 86
2019-12-12 17:00:00 20.2 24 Noroeste 57 Oeste 0 1023.3 -0.3 84
2019-12-12 16:00:00 20.3 23 Noroeste 47 Noroeste 0 1023.3 -0.7 86
2019-12-12 15:00:00 21.4 18 Noroeste 40 Noroeste 0 1023.3 -1.3 81
2019-12-12 14:00:00 22.8 18 Noroeste 36 Noroeste 0 1023.6 -1.3 74
2019-12-12 13:00:00 22 17 Noroeste 37 Noroeste 0 1024 -0.9 75
2019-12-12 12:00:00 22 15 Noroeste 45 Norte 0 1024.6 0.5 73
2019-12-12 11:00:00 21 22 Noroeste 58 Noroeste 0 1024.9 1.5 76
2019-12-12 10:00:00 20.9 11 Noroeste 40 Noroeste 0 1024.9 2 74
2019-12-12 09:00:00 19.6 14 Noroeste 48 Noroeste 0 1024.1 0.9 79
2019-12-12 08:00:00 18.9 21 Noroeste 52 Noroeste 0 1023.4 0.8 78
2019-12-12 07:00:00 18.6 17 Noroeste 41 Noroeste 0 1022.9 -0.2 80
2019-12-12 06:00:00 18.8 19 Noroeste 60 Oeste 0 1023.2 -0.3 80
2019-12-12 05:00:00 18.6 20 Noroeste 50 Oeste 0 1022.6 -1.1 80
2019-12-12 04:00:00 18.7 19 Noroeste 46 Noroeste 0 1023.1 -1.2 80
2019-12-12 03:00:00 18.8 19 Noroeste 49 Noroeste 0 1023.5 -1 78
2019-12-12 02:00:00 18.9 19 Noroeste 48 Noroeste 0 1023.7 -0.4 79
2019-12-12 01:00:00 18.9 17 Noroeste 41 Norte 0 1024.3 0 80
2019-12-12 00:00:00 19 17 Noroeste 44 Noroeste 0 1024.5 0.3 79
2019-12-11 23:00:00 19 20 Noroeste 50 Noroeste 0 1024.1 0 77
2019-12-11 22:00:00 18.9 17 Noroeste 39 Noroeste 0 1024.3 0.8 78
2019-12-11 21:00:00 19.1 15 Noroeste 44 Noroeste 0 1024.2 1 80
2019-12-11 20:00:00 19.2 17 Noroeste 46 Oeste 0 1024.1 1.3 81
2019-12-11 19:00:00 19.5 18 Noroeste 48 Noroeste 0 1023.5 0.8 81
2019-12-11 18:00:00 19.6 17 Noroeste 45 Noroeste 0 1023.2 0.3 82
2019-12-11 17:00:00 20.6 22 Noroeste 51 Noroeste 0 1022.8 -0.4 80
2019-12-11 16:00:00 21 19 Noroeste 48 Oeste 0 1022.7 -1.3 79
2019-12-11 15:00:00 21.4 18 Noroeste 43 Noroeste 0 1022.9 -1.8 78
2019-12-11 14:00:00 22.3 15 Noroeste 50 Noroeste 0 1023.2 -2.1 77
2019-12-11 13:00:00 22.1 15 Noroeste 38 Oeste 0 1024 -1 80
2019-12-11 12:00:00 22.5 15 Noroeste 34 Oeste 0 1024.7 0.3 74
2019-12-11 11:00:00 21.6 14 Noroeste 29 Oeste 0 1025.3 1.5 77
2019-12-11 10:00:00 21.6 12 Noroeste 29 Noroeste 0 1025 1.7 73
2019-12-11 09:00:00 20.5 10 Noroeste 29 Nordeste 0 1024.4 1.8 79
2019-12-11 08:00:00 19.7 14 Norte 37 Norte 0 1023.8 1 84
2019-12-11 07:00:00 19.5 12 Noroeste 37 Norte 0 1023.3 0.6 83
2019-12-11 06:00:00 19.6 14 Norte 36 Norte 0 1022.6 0.1 84
2019-12-11 05:00:00 19.8 15 Noroeste 44 Norte 0 1022.8 -0.4 83
2019-12-11 04:00:00 19.9 15 Norte 38 Noroeste 0 1022.7 -0.8 85
2019-12-11 03:00:00 19.8 16 Noroeste 42 Noroeste 0 1022.5 -1.4 86
2019-12-11 02:00:00 19.8 16 Noroeste 35 Noroeste 0 1023.2 -0.6 85
2019-12-11 01:00:00 20 15 Norte 32 Noroeste 0 1023.5 -0.1 83
2019-12-11 00:00:00 19.9 11 Noroeste 39 Noroeste 0 1023.9 0.7 85
2019-12-10 23:00:00 20 16 Noroeste 38 Oeste 0 1023.8 1.1 84
2019-12-10 22:00:00 19.8 17 Noroeste 41 Noroeste 0 1023.6 1 85
2019-12-10 21:00:00 20 12 Noroeste 35 Oeste 0 1023.2 1.2 84
2019-12-10 20:00:00 20.3 16 Noroeste 44 Noroeste 0 1022.7 0.5 83
2019-12-10 19:00:00 20.2 12 Norte 31 Norte 0 1022.6 0.3 83
2019-12-10 18:00:00 20.4 15 Noroeste 33 Noroeste 0 1022 -0.4 81
2019-12-10 17:00:00 21.3 15 Noroeste 37 Norte 0 1022.2 -1 78
2019-12-10 16:00:00 21.3 17 Noroeste 41 Oeste 0 1022.3 -1.8 75
2019-12-10 15:00:00 22.1 16 Noroeste 37 Noroeste 0 1022.4 -2.3 71
2019-12-10 14:00:00 22.1 11 Noroeste 34 Norte 0 1023.2 -1.8 68
2019-12-10 13:00:00 22.5 12 Noroeste 29 Norte 0 1024.1 -0.6 66
2019-12-10 12:00:00 21.8 14 Noroeste 33 Noroeste 0 1024.7 0.4 66
2019-12-10 11:00:00 21.3 14 Noroeste 31 Noroeste 0 1025 1.2 68
2019-12-10 10:00:00 20.3 13 Noroeste 30 Noroeste 0 1024.7 0.7 70
2019-12-10 09:00:00 19.2 10 Noroeste 24 Noroeste 0 1024.3 0.8 76
2019-12-10 08:00:00 16.8 8 Noroeste 12 Noroeste 0 1023.8 0.4 80
2019-12-10 07:00:00 16.9 6 Noroeste 12 Noroeste 0 1024 0.1 80
2019-12-10 06:00:00 17.6 7 Noroeste 28 Noroeste 0 1023.5 -0.4 78
2019-12-10 05:00:00 18.2 12 Noroeste 23 Oeste 0 1023.4 -0.8 78
2019-12-10 04:00:00 18.1 10 Noroeste 30 Noroeste 0 1023.9 -0.7 79
2019-12-10 03:00:00 18.3 11 Noroeste 33 Oeste 0 1023.9 -1.1 78
2019-12-10 02:00:00 18.5 12 Noroeste 35 Norte 0 1024.2 -0.8 78
2019-12-10 01:00:00 18.6 12 Noroeste 31 Norte 0 1024.6 -0.5 79
2019-12-10 00:00:00 18.8 12 Noroeste 25 Noroeste 0 1025 0.1 79
2019-12-09 23:00:00 18.9 14 Noroeste 29 Noroeste 0 1025 0.7 77
2019-12-09 22:00:00 19.1 13 Noroeste 32 Noroeste 0 1025.1 1.3 79
2019-12-09 21:00:00 19.5 13 Norte 36 Noroeste 0 1024.9 1.3 79
2019-12-09 20:00:00 19.6 13 Norte 63 Noroeste 0 1024.3 1 80
2019-12-09 19:00:00 19.8 14 Noroeste 33 Noroeste 0 1023.8 0.8 80
2019-12-09 18:00:00 20.3 13 Noroeste 33 Noroeste 0 1023.6 0.3 76
2019-12-09 17:00:00 21.3 13 Noroeste 35 Noroeste 0 1023.3 -0.4 72
2019-12-09 16:00:00 21.7 15 Norte 35 Noroeste 0 1023 -1.8 69
2019-12-09 15:00:00 22.4 6 Sudeste 24 Noroeste 0 1023.3 -2.3 67
2019-12-09 14:00:00 22.5 12 Noroeste 37 Noroeste 0 1023.7 -2.3 67
2019-12-09 13:00:00 21.8 13 Noroeste 38 Norte 0 1024.8 -0.7 70
2019-12-09 12:00:00 21.4 11 Norte 42 Norte 0 1025.6 0.7 72
2019-12-09 11:00:00 20.6 17 Noroeste 39 Noroeste 0 1026 1.3 72
2019-12-09 10:00:00 20.6 14 Noroeste 37 Noroeste 0 1025.5 1.3 72
2019-12-09 09:00:00 19.5 9 Norte 23 Noroeste 0 1024.9 1.2 75
2019-12-09 08:00:00 18 10 Noroeste 17 Noroeste 0 1024.7 0.9 80
2019-12-09 07:00:00 19.1 8 Norte 27 Norte 0 1024.2 0.3 77
2019-12-09 06:00:00 18.8 10 Noroeste 30 Norte 0 1023.7 -0.1 79
2019-12-09 05:00:00 18.5 10 Noroeste 24 Noroeste 0 1023.8 -0.2 75
2019-12-09 04:00:00 18.9 12 Noroeste 41 Norte 0 1023.9 -0.4 76
2019-12-09 03:00:00 18.9 16 Noroeste 43 Noroeste 0 1023.8 -0.7 75
2019-12-09 02:00:00 19 16 Noroeste 46 Nordeste 0 1024 -0.6 80
2019-12-09 01:00:00 19.4 17 Noroeste 44 Noroeste 0 1024.3 -0.3 81
2019-12-09 00:00:00 19.2 19 Noroeste 50 Noroeste 0 1024.5 0.5 81
2019-12-08 23:00:00 19.4 17 Norte 51 Noroeste 0 1024.6 1.1 80
2019-12-08 22:00:00 19.4 18 Norte 58 Nordeste 0 1024.6 1.5 80
2019-12-08 21:00:00 19.6 16 Norte 57 Noroeste 0 1024 1.1 81
2019-12-08 20:00:00 19.7 18 Noroeste 47 Noroeste 0 1023.5 0.7 80
2019-12-08 19:00:00 19.8 17 Norte 53 Norte 0 1023.1 0.8 79
2019-12-08 18:00:00 20 15 Noroeste 48 Noroeste 0 1022.9 0.5 79
2019-12-08 17:00:00 20.5 13 Noroeste 42 Noroeste 0 1022.8 -0.3 77
2019-12-08 16:00:00 21.1 14 Noroeste 50 Oeste 0 1022.3 -1.7 78
2019-12-08 15:00:00 21.9 12 Noroeste 37 Nordeste 0 1022.4 -1.8 73
2019-12-08 14:00:00 22.4 8 Nordeste 29 Nordeste 0 1023.1 -1.5 67
2019-12-08 13:00:00 21.9 15 Norte 53 Noroeste 0 1024 -1.1 68
2019-12-08 12:00:00 21.4 16 Norte 48 Noroeste 0 1024.2 -0.2 71
2019-12-08 11:00:00 21 14 Noroeste 27 Norte 0 1024.6 1.3 66
2019-12-08 10:00:00 20.5 8 Noroeste 42 Norte 0 1025.1 2.2 71
2019-12-08 09:00:00 19.6 15 Noroeste 44 Noroeste 0 1024.4 1.8 74
2019-12-08 08:00:00 19.1 17 Norte 37 Norte 0 1023.3 1 74
2019-12-08 07:00:00 19.2 12 Norte 29 Nordeste 0 1022.9 0.6 74
2019-12-08 06:00:00 19 12 Norte 51 Nordeste 0 1022.6 -0.3 80
2019-12-08 05:00:00 19.2 20 Noroeste 54 Norte 0 1022.3 -0.8 80
2019-12-08 04:00:00 19.3 19 Noroeste 37 Noroeste 0 1022.3 -0.9 82
2019-12-08 03:00:00 19.3 15 Noroeste 39 Noroeste 0 1022.9 -0.6 82
2019-12-08 02:00:00 19.5 15 Norte 42 Noroeste 0 1023.1 -0.1 80
2019-12-08 01:00:00 19.5 16 Noroeste 37 Oeste 0 1023.2 0.2 79
2019-12-08 00:00:00 19.6 15 Noroeste 46 Norte 0 1023.5 0.7 80
2019-12-07 23:00:00 19.8 22 Noroeste 52 Noroeste 0 1023.2 1.2 80
2019-12-07 22:00:00 19.7 23 Norte 53 Noroeste 0 1023 1.7 80
2019-12-07 21:00:00 19.7 18 Norte 51 Noroeste 0 1022.8 2 79
2019-12-07 20:00:00 19.7 19 Norte 46 Noroeste 0 1022 1.4 79
2019-12-07 19:00:00 19.8 21 Norte 50 Noroeste 0 1021.3 0.9 78
2019-12-07 18:00:00 20.1 13 Norte 40 Nordeste 0 1020.8 1 80
2019-12-07 17:00:00 20.6 17 Norte 44 Norte 0 1020.6 0.3 78
2019-12-07 16:00:00 21 14 Noroeste 49 Norte 0 1020.4 -0.7 80
2019-12-07 15:00:00 21.4 17 Norte 53 Noroeste 0 1019.8 -1.9 76
2019-12-07 14:00:00 21.2 18 Norte 47 Noroeste 0 1020.3 -1.7 76
2019-12-07 13:00:00 22 11 Norte 43 Norte 0 1021.1 -0.3 74
2019-12-07 12:00:00 21.6 12 Norte 56 Noroeste 0 1021.7 0.7 75
2019-12-07 11:00:00 20.6 15 Noroeste 49 Noroeste 0 1022 2 77
2019-12-07 10:00:00 20.3 17 Noroeste 41 Noroeste 0 1021.4 1.5 74
2019-12-07 09:00:00 19.8 20 Noroeste 46 Noroeste 0 1021 2.3 78
2019-12-07 08:00:00 19.1 18 Noroeste 42 Noroeste 0 1020 1.4 80
2019-12-07 07:00:00 18.8 15 Norte 39 Noroeste 0 1019.9 1.1 85
2019-12-07 06:00:00 19.2 20 Norte 54 Noroeste 0 1018.7 -0.1 85
2019-12-07 05:00:00 19.1 15 Noroeste 44 Norte 0 1018.6 0.3 85
2019-12-07 04:00:00 18.9 18 Norte 40 Noroeste 0 1018.8 0.9 85
2019-12-07 03:00:00 19.1 19 Norte 49 Nordeste 0 1018.8 0.2 85
2019-12-07 02:00:00 18.4 24 Norte 49 Norte 0 1018.3 -0.5 88
2019-12-07 01:00:00 19.1 16 Norte 53 Nordeste 0 1017.9 -0.4 85
2019-12-07 00:00:00 19.4 19 Norte 54 Nordeste 0 1018.6 0.8 83
2019-12-06 23:00:00 19.6 18 Norte 53 Nordeste 0 1018.8 1.3 80
2019-12-06 22:00:00 19.4 18 Norte 44 Nordeste 0 1018.3 1.7 81
2019-12-06 21:00:00 19.6 17 Norte 55 Norte 0 1017.8 2 77
2019-12-06 20:00:00 19.6 22 Norte 52 Nordeste 0 1017.5 1.5 77
2019-12-06 19:00:00 19.7 19 Norte 57 Norte 0 1016.6 0.9 75
2019-12-06 18:00:00 19.8 19 Norte 55 Nordeste 0 1015.8 0.2 75
2019-12-06 17:00:00 20.1 20 Noroeste 51 Norte 0 1016 0.5 77
2019-12-06 16:00:00 20.4 20 Norte 62 Nordeste 0 1015.7 -0.3 77
2019-12-06 15:00:00 20.5 25 Norte 60 Norte 0 1015.6 -1.1 75
2019-12-06 14:00:00 19.8 25 Norte 49 Noroeste 0 1015.5 -0.5 85
2019-12-06 13:00:00 19 20 Norte 58 Nordeste 0.1 1016 0.1 90
2019-12-06 12:00:00 20.7 17 Norte 58 Nordeste 0 1016.7 1.8 78
2019-12-06 11:00:00 20.4 30 Noroeste 60 Noroeste 0 1016 1.5 75
2019-12-06 10:00:00 20.1 23 Noroeste 62 Noroeste 0 1015.9 1.7 73
2019-12-06 09:00:00 19.4 21 Norte 64 Noroeste 0 1014.9 1.4 80
2019-12-06 08:00:00 18.5 15 Norte 53 Noroeste 0.2 1014.5 1.2 86
2019-12-06 07:00:00 18.2 23 Norte 64 Norte 0.1 1014.2 1.1 88
2019-12-06 06:00:00 18.3 19 Norte 56 Noroeste 0 1013.5 0.6 83
2019-12-06 05:00:00 18.1 22 Norte 59 Nordeste 0 1013.3 0.4 84
2019-12-06 04:00:00 18.4 19 Norte 57 Norte 0 1013.1 -0.5 84
2019-12-06 03:00:00 18.3 23 Norte 57 Norte 0 1012.9 -1 88
2019-12-06 02:00:00 18.9 23 Norte 60 Norte 0 1012.9 -1.3 83
2019-12-06 01:00:00 18.3 19 Norte 58 Nordeste 0 1013.6 -0.6 85
2019-12-06 00:00:00 18.4 22 Norte 54 Oeste 0.1 1013.9 0.3 84
2019-12-05 23:00:00 18 21 Norte 51 Nordeste 0.3 1014.2 1.5 89
2019-12-05 22:00:00 18.1 20 Norte 50 Norte 0 1014.2 2.1 87
2019-12-05 21:00:00 18.6 21 Norte 57 Nordeste 0 1013.6 2.1 82
2019-12-05 20:00:00 18.9 17 Norte 60 Noroeste 0 1012.7 0.8 69
2019-12-05 19:00:00 18.9 19 Norte 62 Noroeste 0 1012.1 0.5 71
2019-12-05 18:00:00 19 21 Norte 58 Nordeste 0 1011.5 0.1 70
2019-12-05 17:00:00 18.5 18 Norte 46 Noroeste 0 1011.9 -0.2 79
2019-12-05 16:00:00 17.7 19 Noroeste 44 Nordeste 0.4 1011.6 -1 88
2019-12-05 15:00:00 19.4 12 Norte 43 Noroeste 0 1011.4 -2.1 76
2019-12-05 14:00:00 18.9 18 Norte 58 Nordeste 0 1012.1 -2 77
2019-12-05 13:00:00 19.8 17 Norte 55 Noroeste 0 1012.6 -1.5 75
2019-12-05 12:00:00 18.6 22 Norte 54 Nordeste 0 1013.5 0.2 84
2019-12-05 11:00:00 19.2 16 Norte 41 Noroeste 0 1014.1 1 75
2019-12-05 10:00:00 19.1 10 Norte 45 Nordeste 0 1014.1 1.6 73
2019-12-05 09:00:00 18.9 16 Norte 41 Noroeste 0 1013.3 1.7 74
2019-12-05 08:00:00 17.5 13 Noroeste 45 Norte 0 1013.1 1.3 80
2019-12-05 07:00:00 17.4 18 Norte 45 Nordeste 0.8 1012.5 -0.4 84
2019-12-05 06:00:00 18.4 19 Norte 50 Noroeste 0 1011.6 -1.8 73
2019-12-05 05:00:00 18.8 18 Norte 51 Nordeste 0 1011.8 -2 66
2019-12-05 04:00:00 18.6 13 Norte 42 Nordeste 0 1012.9 -0.6 75
2019-12-05 03:00:00 17.6 10 Norte 45 Nordeste 0.8 1013.4 -1.1 83
2019-12-05 02:00:00 19 17 Norte 45 Norte 0.1 1013.8 -1.6 79
2019-12-05 01:00:00 18.6 15 Norte 47 Norte 1 1013.5 -1.9 92
2019-12-05 00:00:00 18.2 10 Norte 30 Noroeste 4 1014.5 -1.2 94
2019-12-04 23:00:00 18.6 5 Nordeste 19 Nordeste 0.1 1015.4 -0.2 93
2019-12-04 22:00:00 19.5 5 Noroeste 28 Norte 0 1015.4 0 83
2019-12-04 21:00:00 19.8 8 Noroeste 28 Noroeste 0 1015.7 0.6 82
2019-12-04 20:00:00 18.9 9 Norte 32 Norte 0 1015.6 0.5 92
2019-12-04 19:00:00 19.8 13 Noroeste 31 Noroeste 0 1015.4 -0.2 78
2019-12-04 18:00:00 20.2 16 Noroeste 36 Noroeste 0 1015.1 -0.4 72
2019-12-04 17:00:00 21 14 Noroeste 38 Norte 0 1015.1 -1.2 68
2019-12-04 16:00:00 21.1 12 Noroeste 28 Norte 0 1015.6 -1.6 69
2019-12-04 15:00:00 20.6 10 Norte 33 Noroeste 0 1015.5 -2.8 73
2019-12-04 14:00:00 22 10 Noroeste 32 Noroeste 0 1016.3 -2.5 72
2019-12-04 13:00:00 21.8 12 Noroeste 37 Noroeste 0 1017.2 -1.5 74
2019-12-04 12:00:00 20.6 8 Noroeste 28 Noroeste 0 1018.3 0.2 74
2019-12-04 11:00:00 20.6 8 Norte 19 Norte 0 1018.8 1.1 72
2019-12-04 10:00:00 20.7 4 Noroeste 10 Norte 0 1018.7 1.4 73
2019-12-04 09:00:00 19.6 5 Noroeste 13 Noroeste 0 1018.1 1.5 74
2019-12-04 08:00:00 19 4 Noroeste 9 Norte 0 1017.7 0.9 75
2019-12-04 07:00:00 19 5 Noroeste 21 Noroeste 0 1017.3 0.3 75
2019-12-04 06:00:00 19.3 2 Norte 19 Nordeste 0 1016.6 -0.5 76
2019-12-04 05:00:00 19.5 5 Norte 21 Norte 0 1016.8 -0.2 78
2019-12-04 04:00:00 19.4 7 Norte 28 Oeste 0 1017 0 77
2019-12-04 03:00:00 19.1 10 Norte 26 Noroeste 0 1017.1 -0.6 80
2019-12-04 02:00:00 19.1 13 Norte 31 Norte 0 1017 -0.7 77
2019-12-04 01:00:00 19.3 11 Norte 29 Noroeste 0 1017 -0.8 74
2019-12-04 00:00:00 19.6 10 Norte 33 Noroeste 0 1017.7 0.1 75
2019-12-03 23:00:00 19.6 9 Noroeste 28 Norte 0 1017.7 0.9 74
2019-12-03 22:00:00 19.7 11 Norte 29 Norte 0 1017.8 1.5 74
2019-12-03 21:00:00 19.5 7 Norte 32 Nordeste 0 1017.6 2.1 76
2019-12-03 20:00:00 19.4 9 Norte 27 Norte 0 1016.8 1.3 74
2019-12-03 19:00:00 19.6 14 Norte 35 Norte 0 1016.3 1.3 74
2019-12-03 18:00:00 19.7 14 Noroeste 41 Norte 0 1015.5 0.8 71
2019-12-03 17:00:00 20.1 14 Noroeste 33 Noroeste 0 1015.5 0.8 75
2019-12-03 16:00:00 21.1 10 Noroeste 35 Nordeste 0 1015 -0.1 66
2019-12-03 15:00:00 22 11 Norte 39 Norte 0 1014.7 -1 63
2019-12-03 14:00:00 21.5 12 Noroeste 39 Noroeste 0 1014.7 -1.3 67
2019-12-03 13:00:00 21.4 14 Noroeste 39 Noroeste 0 1015.1 -0.4 66
2019-12-03 12:00:00 20.5 12 Noroeste 35 Noroeste 0 1015.7 0.6 74
2019-12-03 11:00:00 20 12 Norte 37 Norte 0 1016 1.3 78
2019-12-03 10:00:00 19.8 13 Norte 40 Nordeste 0 1015.5 1.5 80
2019-12-03 09:00:00 18.3 12 Norte 47 Nordeste 0.1 1015.1 1.6 92
2019-12-03 08:00:00 18.3 12 Noroeste 30 Norte 0 1014.7 1.7 85
2019-12-03 07:00:00 18.3 15 Noroeste 42 Nordeste 0.1 1014 0.9 81
2019-12-03 06:00:00 17.6 11 Norte 42 Norte 1.2 1013.5 0.2 93
2019-12-03 05:00:00 18.3 17 Norte 45 Norte 0 1013 -0.3 90
2019-12-03 04:00:00 18.9 14 Norte 36 Norte 0 1013.1 -0.9 81
2019-12-03 03:00:00 18.6 14 Norte 41 Norte 0 1013.3 -0.8 90
2019-12-03 02:00:00 19 12 Norte 37 Nordeste 0 1013.3 -1.4 88
2019-12-03 01:00:00 18.6 18 Norte 37 Norte 0 1014 -0.8 89
2019-12-03 00:00:00 19.4 12 Norte 32 Norte 0 1014.1 -0.4 85
2019-12-02 23:00:00 19.3 14 Norte 44 Noroeste 0 1014.7 0.5 83
2019-12-02 22:00:00 19.2 15 Norte 45 Noroeste 0 1014.8 1.1 85
2019-12-02 21:00:00 19.8 13 Norte 41 Norte 0 1014.5 0.8 82
2019-12-02 20:00:00 19.8 14 Noroeste 42 Noroeste 0 1014.2 0.3 79
2019-12-02 19:00:00 20 15 Norte 37 Norte 0 1013.7 -0.5 78
2019-12-02 18:00:00 20 15 Norte 39 Nordeste 0 1013.7 -0.7 77
2019-12-02 17:00:00 21.2 11 Noroeste 36 Nordeste 0 1013.9 -0.9 68
2019-12-02 16:00:00 20.9 12 Norte 36 Noroeste 0 1014.2 -1.4 68
2019-12-02 15:00:00 20.5 13 Norte 40 Oeste 0 1014.4 -2.2 71
2019-12-02 14:00:00 20.8 13 Noroeste 41 Noroeste 0 1014.8 -2.1 76
2019-12-02 13:00:00 21.3 15 Noroeste 35 Oeste 0 1015.6 -1.2 77
2019-12-02 12:00:00 21.4 13 Noroeste 31 Noroeste 0 1016.6 0.1 79
2019-12-02 11:00:00 21.7 12 Norte 35 Noroeste 0 1016.9 0.7 81
2019-12-02 10:00:00 21.3 15 Norte 42 Norte 0 1016.8 0.9 80
2019-12-02 09:00:00 20.8 11 Norte 33 Oeste 0 1016.5 0.3 80
2019-12-02 08:00:00 20 11 Norte 41 Oeste 0 1016.2 -0.5 83
2019-12-02 07:00:00 19.9 14 Norte 37 Norte 0 1015.9 -1.1 86
2019-12-02 06:00:00 19.8 13 Norte 33 Nordeste 0 1016.2 -1.1 80
2019-12-02 05:00:00 19.9 12 Norte 28 Norte 0 1016.7 -0.9 75
2019-12-02 04:00:00 19.9 10 Noroeste 31 Norte 0 1017 -0.7 78
2019-12-02 03:00:00 19.8 17 Norte 34 Noroeste 0 1017.3 -0.7 83
2019-12-02 02:00:00 19.8 13 Norte 34 Norte 0 1017.6 -0.8 83
2019-12-02 01:00:00 20 19 Norte 38 Norte 0 1017.7 -0.5 85
2019-12-02 00:00:00 20.1 12 Norte 24 Norte 0 1018 -0.3 80
2019-12-01 23:00:00 20.3 10 Norte 25 Noroeste 0 1018.4 0.4 77
2019-12-01 22:00:00 20.3 10 Noroeste 27 Noroeste 0 1018.2 0.4 77
2019-12-01 21:00:00 20.4 11 Noroeste 31 Norte 0 1018.3 0.5 77
2019-12-01 20:00:00 20.6 15 Noroeste 39 Norte 0 1018 0.5 78
2019-12-01 19:00:00 20.7 22 Noroeste 44 Noroeste 0 1017.8 0.5 79
2019-12-01 18:00:00 21.1 18 Noroeste 41 Noroeste 0 1017.8 0.5 78
2019-12-01 17:00:00 22.5 18 Noroeste 33 Noroeste 0 1017.5 -0.3 72
2019-12-01 16:00:00 24.2 15 Noroeste 27 Noroeste 0 1017.3 -1.3 61
2019-12-01 15:00:00 23.9 17 Norte 44 Nordeste 0 1017.3 -2.1 72
2019-12-01 14:00:00 22.7 11 Sur 16 Sur 0 1017.8 -1.8 88
2019-12-01 13:00:00 23 10 Sudeste 18 Sur 0 1018.6 -0.6 89
2019-12-01 12:00:00 24 4 Sudeste 27 Nordeste 0 1019.4 0.8 84
2019-12-01 11:00:00 22.8 10 Sudeste 36 Noroeste 0 1019.6 1.8 91
2019-12-01 10:00:00 22.4 22 Noroeste 35 Noroeste 0 1019.2 2.1 72
2019-12-01 09:00:00 22 10 Noroeste 31 Noroeste 0 1018.6 2 72
2019-12-01 08:00:00 21.4 13 Noroeste 38 Noroeste 0 1017.8 1.2 69
2019-12-01 07:00:00 21.3 17 Noroeste 50 Noroeste 0 1017.1 0.6 72
2019-12-01 06:00:00 21.9 17 Noroeste 45 Noroeste 0 1016.6 -0.3 64
2019-12-01 05:00:00 23.6 18 Norte 30 Norte 0 1016.6 -0.9 50
2019-12-01 04:00:00 23.4 12 Noroeste 35 Noroeste 0 1016.5 -- 53
2019-12-01 03:00:00 22.4 17 Norte 35 Noroeste 0 1016.9 -0.5 66
2019-12-01 02:00:00 21.9 16 Norte 32 Norte 0 1017.5 -0.3 73
2019-12-01 01:00:00 -- 16 Norte 28 Norte 0 -- -- --
2019-12-01 00:00:00 23.3 14 Norte 32 Nordeste 0 1017.4 -0.4 63
2019-11-30 23:00:00 23 19 Norte 33 Norte 0 1017.8 0.4 67
2019-11-30 22:00:00 23.7 19 Norte 31 Norte 0 1017.7 0.3 63
2019-11-30 21:00:00 23.8 6 Norte 19 Norte 0 1017.8 1 56
2019-11-30 20:00:00 22.6 5 Norte 11 Norte 0 1017.4 0.8 65
2019-11-30 19:00:00 23.1 0 Calma 14 Norte 0 1017.4 0.8 76
2019-11-30 18:00:00 23.7 5 Nordeste 18 Nordeste 0 1016.8 0.6 76
2019-11-30 17:00:00 25.2 7 Nordeste 20 Norte 0 1016.6 0 73
2019-11-30 16:00:00 25.3 6 Este 28 Nordeste 0 1016.6 -0.5 73
2019-11-30 15:00:00 26.4 10 Nordeste 30 Nordeste 0 1016.2 -1.8 67
2019-11-30 14:00:00 26 15 Nordeste 35 Este 0 1016.6 -1.7 71
2019-11-30 13:00:00 25.4 15 Nordeste 30 Nordeste 0 1017.1 -0.4 72
2019-11-30 12:00:00 25.9 9 Nordeste 19 Este 0 1018 0.8 68
2019-11-30 11:00:00 25.3 5 Sudeste 16 Sur 0 1018.3 1.8 72
2019-11-30 10:00:00 25.3 5 Norte 10 Norte 0 1017.5 1.6 57
2019-11-30 09:00:00 23.5 4 Sur 9 Sur 0 1017.2 1.8 64
2019-11-30 08:00:00 20.6 6 Noroeste 12 Noroeste 0 1016.5 1.3 59
2019-11-30 07:00:00 21.3 3 Nordeste 9 Noroeste 0 1015.9 0.9 68
2019-11-30 06:00:00 22.3 6 Norte 14 Nordeste 0 1015.4 0.4 62
2019-11-30 05:00:00 22.4 3 Sudeste 17 Nordeste 0 1015.2 0 86
2019-11-30 04:00:00 23.9 9 Norte 22 Nordeste 0 1015 -0.3 52
2019-11-30 03:00:00 23.9 12 Norte 24 Norte 0 1015 -0.6 62
2019-11-30 02:00:00 24 9 Noroeste 20 Norte 0 1015.2 -0.2 49
2019-11-30 01:00:00 23.8 10 Norte 21 Norte 0 1015.3 -0.1 54
2019-11-30 00:00:00 23.7 10 Norte 22 Nordeste 0 1015.6 0.6 59
2019-11-29 23:00:00 23.8 9 Norte 23 Norte 0 1015.4 0.9 48
2019-11-29 22:00:00 23.6 12 Norte 22 Norte 0 1015.4 1.4 66
2019-11-29 21:00:00 23.3 15 Norte 29 Nordeste 0 1015 1.3 72
2019-11-29 20:00:00 23.1 9 Norte 24 Nordeste 0 1014.5 1 75
2019-11-29 19:00:00 23.7 12 Nordeste 25 Nordeste 0 1014 0.9 72
2019-11-29 18:00:00 25.1 9 Nordeste 17 Norte 0 1013.7 0.4 63
2019-11-29 17:00:00 26.4 14 Este 27 Norte 0 1013.5 -0.4 57
2019-11-29 16:00:00 25.7 13 Este 41 Nordeste 0 1013.1 -1.4 63
2019-11-29 15:00:00 25.9 17 Nordeste 39 Este 0 1013.3 -1.8 65
2019-11-29 14:00:00 28.8 5 Norte 22 Norte 0 1013.9 -1.4 45
2019-11-29 13:00:00 28.2 6 Nordeste 23 Nordeste 0 1014.5 -0.3 47
2019-11-29 12:00:00 27.2 6 Norte 27 Este 0 1015.1 1.1 50
2019-11-29 11:00:00 27.3 6 Norte 25 Norte 0 1015.3 1.6 51
2019-11-29 10:00:00 26.4 12 Norte 23 Norte 0 1014.8 1.5 47
2019-11-29 09:00:00 23.5 12 Norte 26 Norte 0 1014 1 54
2019-11-29 08:00:00 22.2 13 Norte 26 Norte 0 1013.7 0.6 67
2019-11-29 07:00:00 22.1 13 Norte 27 Nordeste 0 1013.3 0 68
2019-11-29 06:00:00 21.6 12 Norte 27 Noroeste 0 1013 -0.5 71
2019-11-29 05:00:00 20.2 3 Este 13 Noroeste 0 1013.1 -0.3 91
2019-11-29 04:00:00 22 6 Norte 21 Noroeste 0 1013.3 0.2 74
2019-11-29 03:00:00 21.3 3 Este 21 Oeste 0 1013.5 0.1 87
2019-11-29 02:00:00 21.9 11 Noroeste 30 Noroeste 0 1013.4 -0.2 70
2019-11-29 01:00:00 22.6 12 Norte 27 Noroeste 0 1013.1 -0.4 62
2019-11-29 00:00:00 21.9 3 Este 21 Norte 0 1013.4 0 77
2019-11-28 23:00:00 23 12 Norte 32 Norte 0 1013.6 0.5 56
2019-11-28 22:00:00 23.8 13 Norte 30 Norte 0 1013.5 0.5 50
2019-11-28 21:00:00 23.8 14 Norte 28 Norte 0 1013.4 0.7 53
2019-11-28 20:00:00 21.8 14 Norte 28 Nordeste 0 1013.1 0.8 73
2019-11-28 19:00:00 21.8 19 Norte 29 Norte 0 1013 0.3 74
2019-11-28 18:00:00 21.8 14 Norte 32 Norte 0 1012.7 -0.4 74
2019-11-28 17:00:00 22 19 Norte 32 Norte 0 1012.3 -1.4 74
2019-11-28 16:00:00 21.9 17 Norte 32 Norte 0 1012.7 -1.9 78
2019-11-28 15:00:00 20.9 11 Sur 17 Sur 0 1013.1 -2.2 89
2019-11-28 14:00:00 21.2 13 Sur 26 Sur 0 1013.7 -2.8 87
2019-11-28 13:00:00 22.3 8 Sur 32 Noroeste 0 1014.6 -1.5 80
2019-11-28 12:00:00 23.3 9 Nordeste 27 Nordeste 0 1015.3 -0.5 71
2019-11-28 11:00:00 22.5 3 Sudeste 14 Sur 0 1016.5 1.6 82
2019-11-28 10:00:00 20.9 7 Sur 11 Sur 0 1016.1 1.8 86
2019-11-28 09:00:00 19.8 2 Nordeste 22 Nordeste 0 1015.8 1.7 86
2019-11-28 08:00:00 19.8 9 Norte 26 Norte 0 1014.9 1 83
2019-11-28 07:00:00 19.9 15 Norte 28 Nordeste 0 1014.3 0.5 84
2019-11-28 06:00:00 18.3 4 Noroeste 6 Noroeste 0 1014.1 0 88
2019-11-28 05:00:00 19.2 0 Calma 9 Noroeste 0 1013.9 -0.6 87
2019-11-28 04:00:00 19.8 5 Norte 15 Noroeste 0 1013.8 -1 83
2019-11-28 03:00:00 20 10 Norte 26 Norte 0 1014.1 -1.1 83
2019-11-28 02:00:00 20.1 6 Noroeste 20 Noroeste 0 1014.5 -1 82
2019-11-28 01:00:00 20.2 7 Norte 23 Oeste 0 1014.8 -0.8 83
2019-11-28 00:00:00 20.4 12 Noroeste 27 Noroeste 0 1015.2 -0.2 83
2019-11-27 23:00:00 20.4 14 Noroeste 30 Oeste 0 1015.5 0.4 83
2019-11-27 22:00:00 20.4 9 Noroeste 24 Noroeste 0 1015.6 1 83
2019-11-27 21:00:00 20.5 11 Noroeste 26 Oeste 0 1015.4 1 84
2019-11-27 20:00:00 20.6 9 Noroeste 31 Norte 0 1015.1 0.9 83
2019-11-27 19:00:00 20.7 12 Noroeste 31 Noroeste 0 1014.6 0.4 83
2019-11-27 18:00:00 21 15 Noroeste 32 Norte 0 1014.4 0.1 83
2019-11-27 17:00:00 22 2 Norte 21 Norte 0 1014.2 -0.3 79
2019-11-27 16:00:00 22.5 9 Sur 26 Sudeste 0 1014.2 -1.2 82
2019-11-27 15:00:00 23.3 9 Norte 38 Noroeste 0 1014.3 -1.8 72
2019-11-27 14:00:00 22.6 17 Norte 36 Nordeste 0 1014.5 -2.1 75
2019-11-27 13:00:00 23.2 12 Norte 31 Norte 0 1015.4 -1.3 70
2019-11-27 05:00:00 20.1 9 Norte 22 Noroeste 0 1014.5 -0.9 84
2019-11-27 04:00:00 20.2 13 Norte 31 Norte 0 1014.8 -1.1 84
2019-11-27 03:00:00 20.3 10 Noroeste 28 Norte 0 1014.9 -1.4 83
2019-11-27 02:00:00 20.3 8 Norte 21 Noroeste 0 1015.4 -0.8 84
2019-11-27 01:00:00 20.3 11 Noroeste 25 Oeste 0 1015.9 0 80
2019-11-27 00:00:00 20.4 8 Noroeste 30 Noroeste 0 1016.3 0.4 83
2019-11-26 23:00:00 20.4 7 Noroeste 23 Oeste 0 1016.2 0.7 83
2019-11-26 22:00:00 20.4 10 Noroeste 28 Norte 0 1015.9 0.9 83
2019-11-26 21:00:00 20.5 10 Noroeste 35 Norte 0 1015.9 1 82
2019-11-26 20:00:00 20.6 16 Norte 37 Noroeste 0 1015.5 0.7 83
2019-11-26 19:00:00 20.9 12 Norte 30 Norte 0 1015 0.1 81
2019-11-26 18:00:00 21.5 10 Norte 27 Noroeste 0 1014.9 -0.1 77
2019-11-26 17:00:00 21.8 12 Noroeste 33 Noroeste 0 1014.8 -0.8 78
2019-11-26 16:00:00 22.2 13 Noroeste 35 Noroeste 0 1014.9 -1.6 77
2019-11-26 15:00:00 22.2 19 Noroeste 35 Noroeste 0 1015 -2.2 77
2019-11-26 14:00:00 22.8 6 Sur 17 Oeste 0 1015.6 -2 75
2019-11-26 13:00:00 23.2 2 Sudeste 13 Sur 0 1016.5 -0.5 75
2019-11-26 12:00:00 21.9 8 Sur 12 Sudeste 0 1017.2 0.6 79
2019-11-26 11:00:00 21.2 10 Sur 20 Sur 0 1017.6 1.5 82
2019-11-26 10:00:00 20.8 15 Sur 21 Sur 0 1017 1.6 83
2019-11-26 09:00:00 21 2 Norte 13 Noroeste 0 1016.6 1.4 80
2019-11-26 08:00:00 19.9 5 Norte 18 Noroeste 0 1016.1 0.9 80
2019-11-26 07:00:00 19.9 9 Norte 22 Norte 0 1015.4 -0.1 82
2019-11-26 06:00:00 19.7 5 Noroeste 18 Noroeste 0 1015.2 -0.2 80
2019-11-26 05:00:00 19.7 8 Noroeste 17 Nordeste 0 1015.2 -1.2 80
2019-11-26 04:00:00 19.9 5 Noroeste 28 Nordeste 0 1015.5 -1 78
2019-11-26 03:00:00 20.2 14 Norte 29 Norte 0 1015.4 -1.5 81
2019-11-26 02:00:00 20 8 Noroeste 19 Norte 0 1016.4 -0.8 81
2019-11-26 01:00:00 20 9 Noroeste 27 Noroeste 0 1016.5 -0.9 80
2019-11-26 00:00:00 20.4 13 Norte 25 Norte 0 1016.9 -0.5 81
2019-11-25 23:00:00 20.4 5 Norte 18 Norte 0 1017.2 0.3 81
2019-11-25 22:00:00 20.6 9 Noroeste 21 Noroeste 0 1017.4 0.9 79
2019-11-25 21:00:00 20.7 10 Norte 24 Nordeste 0 1017.4 0.9 81
2019-11-25 20:00:00 20.6 8 Norte 19 Norte 0 1016.9 0.4 80
2019-11-25 19:00:00 20.7 7 Noroeste 24 Oeste 0 1016.5 -0.3 78
2019-11-25 18:00:00 20.6 12 Noroeste 28 Noroeste 0 1016.5 -0.4 75
2019-11-25 17:00:00 21 14 Noroeste 29 Noroeste 0 1016.5 -0.8 72
2019-11-25 16:00:00 21.2 11 Noroeste 23 Noroeste 0 1016.8 -1.1 69
2019-11-25 15:00:00 21.2 5 Norte 27 Noroeste 0 1016.9 -1.6 71
2019-11-25 14:00:00 21.2 11 Noroeste 28 Noroeste 0 1017.3 -1.4 70
2019-11-25 13:00:00 21.8 10 Norte 33 Nordeste 0 1017.9 -1 68
2019-11-25 12:00:00 22.5 8 Norte 27 Norte 0 1018.5 0.3 66
2019-11-25 11:00:00 22 7 Norte 22 Noroeste 0 1018.7 1.3 68
2019-11-25 10:00:00 21.6 6 Noroeste 20 Noroeste 0 1018.9 2 66
2019-11-25 09:00:00 20.4 4 Noroeste 15 Norte 0 1018.2 1.7 73
2019-11-25 08:00:00 19.3 8 Noroeste 13 Noroeste 0 1017.4 0.7 75
2019-11-25 07:00:00 19.3 7 Noroeste 18 Noroeste 0 1016.9 0.2 76
2019-11-25 06:00:00 19.6 7 Noroeste 24 Noroeste 0 1016.5 -0.9 75
2019-11-25 05:00:00 19.8 10 Noroeste 24 Noroeste 0 1016.7 -1.1 75
2019-11-25 04:00:00 19.6 9 Noroeste 17 Noroeste 0 1016.7 -1.1 76
2019-11-25 03:00:00 19.7 10 Noroeste 24 Noroeste 0 1017.4 -0.7 75
2019-11-25 02:00:00 20 8 Noroeste 25 Noroeste 0 1017.8 0.1 77
2019-11-25 01:00:00 20.3 10 Norte 30 Norte 0 1017.8 0.5 80
2019-11-25 00:00:00 20.5 13 Norte 35 Norte 0 1018.1 1 81
2019-11-24 23:00:00 20.4 10 Norte 37 Norte 0 1017.7 1 80
2019-11-24 22:00:00 20.7 10 Norte 30 Noroeste 0 1017.3 0.8 77
2019-11-24 21:00:00 20.9 13 Noroeste 33 Noroeste 0 1017.1 0.7 76
2019-11-24 20:00:00 20.9 14 Norte 38 Norte 0 1016.7 0.4 78
2019-11-24 19:00:00 21.1 14 Noroeste 35 Noroeste 0 1016.5 0.1 77
2019-11-24 18:00:00 21.3 14 Noroeste 37 Norte 0 1016.4 0 79
2019-11-24 17:00:00 21.6 14 Noroeste 37 Noroeste 0 1016.3 -0.8 81
2019-11-24 16:00:00 22.5 13 Noroeste 32 Noroeste 0 1016.4 -1.6 80
2019-11-24 15:00:00 22.5 13 Noroeste 32 Noroeste 0 1016.4 -1.9 78
2019-11-24 14:00:00 23.5 7 Norte 36 Norte 0 1017.1 -1.6 75
2019-11-24 13:00:00 22.5 9 Norte 40 Noroeste 0 1018 -0.8 84
2019-11-24 12:00:00 22.6 15 Norte 38 Noroeste 0 1018.3 0.2 80
2019-11-24 11:00:00 22.3 13 Noroeste 35 Noroeste 0 1018.7 1.2 78
2019-11-24 10:00:00 21.8 10 Noroeste 28 Noroeste 0 1018.8 1.9 84
2019-11-24 09:00:00 21.1 10 Norte 29 Norte 0 1018.1 1.8 89
2019-11-24 08:00:00 20.7 13 Noroeste 27 Noroeste 0 1017.5 0.9 86
2019-11-24 07:00:00 20.8 15 Norte 32 Norte 0 1016.9 0 87
2019-11-24 06:00:00 20.3 8 Norte 22 Noroeste 0 1016.3 -0.6 89
2019-11-24 05:00:00 20 9 Norte 23 Norte 0 1016.6 -0.6 90
2019-11-24 04:00:00 19.9 9 Noroeste 31 Noroeste 0 1016.9 -0.9 94
2019-11-24 03:00:00 21.3 11 Norte 21 Norte 0 1016.9 -1.3 87
2019-11-24 02:00:00 20.9 7 Norte 21 Norte 0 1017.2 -1.2 91
2019-11-24 01:00:00 21.1 6 Norte 28 Noroeste 0 1017.8 -0.2 87
2019-11-24 00:00:00 21.4 15 Noroeste 32 Noroeste 0 1018.2 0.5 88
2019-11-23 23:00:00 21.7 9 Norte 33 Noroeste 0 1018.4 1.1 87
2019-11-23 22:00:00 21.6 14 Norte 55 Noroeste 0 1018 1.3 87
2019-11-23 21:00:00 21.8 14 Norte 32 Nordeste 0 1017.7 1.3 87
2019-11-23 20:00:00 21.9 13 Norte 28 Noroeste 0 1017.3 1.2 87
2019-11-23 19:00:00 22.1 14 Noroeste 31 Noroeste 0 1016.7 1 86
2019-11-23 18:00:00 22.7 10 Noroeste 29 Noroeste 0 1016.4 0.6 84
2019-11-23 17:00:00 23.1 15 Noroeste 35 Noroeste 0 1016.1 -0.2 78
2019-11-23 16:00:00 23.9 15 Noroeste 36 Noroeste 0 1015.7 -1.3 75
2019-11-23 15:00:00 24 15 Norte 36 Noroeste 0 1015.8 -1.6 74
2019-11-23 14:00:00 25 14 Noroeste 35 Noroeste 0 1016.3 -1.5 72
2019-11-23 13:00:00 24.8 15 Noroeste 45 Norte 0 1017 -0.5 72
2019-11-23 12:00:00 24.6 13 Noroeste 40 Noroeste 0 1017.4 0.1 74
2019-11-23 11:00:00 23.6 13 Norte 41 Nordeste 0 1017.8 1.1 80
2019-11-23 10:00:00 22.9 18 Norte 41 Noroeste 0 1017.5 1.3 82
2019-11-23 09:00:00 22.2 13 Norte 25 Noroeste 0 1017.3 1.2 85
2019-11-23 08:00:00 21.4 11 Norte 31 Norte 0 1016.7 1.1 90
2019-11-23 07:00:00 20.8 8 Norte 25 Norte 0.2 1016.2 0.3 93
2019-11-23 06:00:00 20.8 8 Noroeste 33 Noroeste 0 1016.1 0.4 93
2019-11-23 05:00:00 21.4 14 Norte 31 Norte 0 1015.6 -0.4 90
2019-11-23 04:00:00 21.5 9 Noroeste 26 Oeste 0 1015.9 -0.3 90
2019-11-23 03:00:00 21.8 13 Norte 23 Norte 0 1015.7 -0.9 89
2019-11-23 02:00:00 21.9 5 Noroeste 24 Noroeste 0 1016 -0.3 87
2019-11-23 01:00:00 21.2 3 Noroeste 14 Norte 0 1016.2 -0.2 86
2019-11-23 00:00:00 21 0 Calma 9 Sur 0 1016.6 0.4 86
2019-11-22 23:00:00 21.6 4 Norte 15 Nordeste 0 1016.3 1 87
2019-11-22 22:00:00 21.2 0 Calma 6 Sur 0 1016.4 1.8 87
2019-11-22 21:00:00 21.6 2 Sudeste 12 Sudoeste 0 1016.2 1.8 85
2019-11-22 20:00:00 21.8 4 Este 13 Este 0 1015.3 1.3 86
2019-11-22 19:00:00 22.3 7 Nordeste 19 Este 0 1014.6 0.4 80
2019-11-22 18:00:00 23.2 5 Norte 25 Norte 0 1014.4 0.2 75
2019-11-22 17:00:00 23.2 4 Sur 18 Sur 0 1014 -0.7 78
2019-11-22 16:00:00 22.9 9 Sur 24 Sur 0 1014.2 -0.6 79
2019-11-22 15:00:00 23.7 5 Este 19 Sur 0 1014.2 -1 77
2019-11-22 14:00:00 22.7 12 Sur 21 Sur 0 1014.7 -1.1 81
2019-11-22 13:00:00 24.2 2 Sur 37 Nordeste 0 1014.8 -0.9 73
2019-11-22 12:00:00 23.3 13 Norte 34 Nordeste 0 1015.2 0.1 73
2019-11-22 11:00:00 22.9 13 Noroeste 33 Nordeste 0 1015.8 1.7 71
2019-11-22 10:00:00 22.7 10 Norte 31 Nordeste 0 1015.7 2.3 71
2019-11-22 09:00:00 21.5 10 Noroeste 27 Norte 0 1015.1 2.4 75
2019-11-22 08:00:00 20.7 13 Norte 37 Norte 0 1014.1 1.6 82
2019-11-22 07:00:00 20.6 11 Norte 21 Norte 0 1013.4 0.6 86
2019-11-22 06:00:00 20.5 10 Noroeste 28 Norte 0 1012.7 -0.4 83
2019-11-22 05:00:00 20.7 17 Norte 32 Norte 0 1012.5 -0.6 87
2019-11-22 04:00:00 20.6 7 Norte 33 Norte 0 1012.8 -0.8 89
2019-11-22 03:00:00 20.1 11 Noroeste 35 Norte 0.1 1013.1 -0.8 94
2019-11-22 02:00:00 20.3 4 Noroeste 14 Norte 0 1013.1 -0.7 94
2019-11-22 01:00:00 21.4 0 Calma 13 Nordeste 0 1013.6 -0.2 86
2019-11-22 00:00:00 20.6 0 Calma 10 Noroeste 0 1013.9 0.3 82
2019-11-21 23:00:00 20.2 5 Noroeste 10 Norte 0 1013.8 0.8 83
2019-11-21 22:00:00 20.3 6 Noroeste 12 Noroeste 0 1013.8 1.1 83
2019-11-21 21:00:00 20.4 7 Noroeste 11 Noroeste 0 1013.6 1.2 83
2019-11-21 20:00:00 21.1 4 Noroeste 9 Norte 0 1013 0.7 82
2019-11-21 19:00:00 21.7 3 Noroeste 7 Norte 0 1012.7 0.6 82
2019-11-21 18:00:00 22 0 Calma 13 Sur 0 1012.4 0.2 83
2019-11-21 17:00:00 23.5 5 Sudeste 12 Sudeste 0 1012.3 -0.6 75
2019-11-21 16:00:00 23.6 5 Este 15 Este 0 1012.1 -1.8 73
2019-11-21 15:00:00 24.7 3 Sudeste 15 Sudeste 0 1012.2 -2.3 73
2019-11-21 14:00:00 23.4 5 Sudeste 12 Sudeste 0 1012.9 -2 72
2019-11-21 13:00:00 24 3 Este 13 Sudeste 0 1013.9 -1.3 71
2019-11-21 12:00:00 23.7 3 Sudeste 12 Sur 0 1014.5 -0.2 72
2019-11-21 11:00:00 23 3 Sudeste 11 Nordeste 0 1014.9 0.6 70
2019-11-21 10:00:00 22.6 2 Este 9 Sudeste 0 1015.2 1.3 77
2019-11-21 09:00:00 20.2 5 Norte 11 Nordeste 0 1014.7 1.4 78
2019-11-21 08:00:00 18.3 7 Noroeste 13 Noroeste 0 1014.3 0.8 83
2019-11-21 07:00:00 -- -- -- -- -- -- -- -- --
2019-11-21 06:00:00 -- -- -- -- -- -- -- -- --
2019-11-21 05:00:00 -- -- -- -- -- -- -- -- --
2019-11-21 04:00:00 -- -- -- -- -- -- -- -- --
2019-11-21 03:00:00 -- -- -- -- -- -- -- -- --
2019-11-21 02:00:00 -- -- -- -- -- -- -- -- --
2019-11-21 01:00:00 -- -- -- -- -- -- -- -- --
2019-11-21 00:00:00 -- -- -- -- -- -- -- -- --
2019-11-20 23:00:00 -- -- -- -- -- -- -- -- --
2019-11-20 22:00:00 -- -- -- -- -- -- -- -- --
2019-11-20 21:00:00 -- -- -- -- -- -- -- -- --
2019-11-20 20:00:00 -- -- -- -- -- -- -- -- --
2019-11-20 19:00:00 -- -- -- -- -- -- -- -- --
2019-11-20 18:00:00 21.9 3 Oeste 15 Norte 0 1014 -0.1 83
2019-11-20 17:00:00 23.2 4 Sudeste 20 Sur 0 1013.8 -0.8 83
2019-11-20 16:00:00 22.1 11 Sur 18 Sudeste 0 1013.7 -1.8 81
2019-11-20 15:00:00 22.4 10 Sur 15 Sur 0 1014.1 -2.1 75
2019-11-20 14:00:00 23.6 4 Este 11 Sur 0 1014.6 -2.1 71
2019-11-20 13:00:00 23.5 4 Este 14 Este 0 1015.5 -1.3 67
2019-11-20 12:00:00 23.2 5 Este 12 Este 0 1016.2 -0.1 73
2019-11-20 11:00:00 21.6 8 Sur 12 Sur 0 1016.7 0.5 80
2019-11-20 10:00:00 21.8 6 Sudeste 11 Sudeste 0 1016.8 1.1 81
2019-11-20 09:00:00 19.4 6 Norte 14 Norte 0 1016.3 0.5 79
2019-11-20 08:00:00 17.3 8 Norte 13 Norte 0 1016.2 0.6 86
2019-11-20 07:00:00 17 6 Noroeste 14 Noroeste 0 1015.7 -0.2 86
2019-11-20 06:00:00 17.2 7 Noroeste 14 Noroeste 0 1015.8 -0.2 84
2019-11-20 05:00:00 17.4 8 Noroeste 13 Noroeste 0 1015.6 -0.6 83
2019-11-20 04:00:00 17.6 7 Noroeste 13 Noroeste 0 1015.9 -0.8 83
2019-11-20 03:00:00 18.3 6 Noroeste 9 Noroeste 0 1016 -0.9 80
2019-11-20 02:00:00 18.8 4 Noroeste 9 Noroeste 0 1016.2 -1.1 80
2019-11-20 01:00:00 19.3 6 Noroeste 11 Noroeste 0 1016.7 -0.6 80
2019-11-20 00:00:00 20 4 Noroeste 13 Norte 0 1016.9 -0.2 79
2019-11-19 23:00:00 20.4 0 Calma 6 Nordeste 0 1017.3 0.5 80
2019-11-19 22:00:00 20.1 2 Noroeste 18 Noroeste 0 1017.3 0.8 78
2019-11-19 21:00:00 20 7 Noroeste 18 Oeste 0 1017.1 0.7 75
2019-11-19 20:00:00 20.1 8 Noroeste 16 Oeste 0 1016.8 0.5 71
2019-11-19 19:00:00 20.2 6 Noroeste 25 Noroeste 0 1016.5 0.5 73
2019-11-19 18:00:00 20.8 13 Noroeste 27 Noroeste 0 1016.4 -0.1 72
2019-11-19 17:00:00 22.7 8 Noroeste 25 Oeste 0 1016.3 -0.8 64
2019-11-19 16:00:00 22.9 6 Sur 21 Sur 0 1016 -1.8 69
2019-11-19 15:00:00 21.8 10 Sur 19 Sur 0 1016.5 -2.3 75
2019-11-19 14:00:00 22 9 Sudeste 22 Sur 0 1017.1 -2.3 74
2019-11-19 13:00:00 22.7 10 Noroeste 35 Noroeste 0 1017.8 -1.4 64
2019-11-19 12:00:00 22.1 14 Noroeste 30 Noroeste 0 1018.8 0 71
2019-11-19 11:00:00 22 12 Noroeste 33 Noroeste 0 1019.4 0.7 72
2019-11-19 10:00:00 21.8 10 Noroeste 24 Noroeste 0 1019.2 0.8 72
2019-11-19 09:00:00 20.3 9 Noroeste 19 Noroeste 0 1018.8 0.6 78
2019-11-19 08:00:00 18.9 7 Noroeste 14 Norte 0 1018.7 0.8 84
2019-11-19 07:00:00 18.7 8 Noroeste 18 Noroeste 0 1018.4 0.1 86
2019-11-19 06:00:00 19.2 11 Norte 22 Norte 0 1018.2 -0.4 86
2019-11-19 05:00:00 19.4 10 Norte 23 Norte 0 1017.9 -0.8 83
2019-11-19 04:00:00 19.3 9 Norte 24 Noroeste 0 1018.3 -1 82
2019-11-19 03:00:00 19.3 9 Norte 20 Noroeste 0 1018.6 -1.2 81
2019-11-19 02:00:00 19.4 9 Norte 57 Noroeste 0 1018.7 -1 82
2019-11-19 01:00:00 19.7 12 Norte 32 Norte 0 1019.3 -0.3 84
2019-11-19 00:00:00 19.7 14 Norte 30 Norte 0 1019.8 0.2 83
2019-11-18 23:00:00 19.8 13 Norte 30 Noroeste 0 1019.7 0.7 83
2019-11-18 22:00:00 19.8 14 Norte 33 Noroeste 0 1019.6 1.1 83
2019-11-18 21:00:00 20 12 Norte 32 Oeste 0 1019.6 1 82
2019-11-18 20:00:00 20.2 11 Norte 40 Noroeste 0 1019 0.4 80
2019-11-18 19:00:00 20.2 14 Noroeste 37 Nordeste 0 1018.5 0 83
2019-11-18 18:00:00 20.5 10 Noroeste 32 Noroeste 0 1018.6 0.3 83
2019-11-18 17:00:00 21 10 Noroeste 33 Noroeste 0 1018.6 0 80
2019-11-18 16:00:00 21.6 9 Norte 32 Noroeste 0 1018.5 -0.6 80
2019-11-18 15:00:00 22.1 5 Noroeste 32 Noroeste 0 1018.3 -1.3 73
2019-11-18 14:00:00 22.7 10 Noroeste 33 Nordeste 0 1018.6 -1.5 71
2019-11-18 13:00:00 22.8 10 Noroeste 29 Norte 0 1019.1 -0.8 65
2019-11-18 12:00:00 21.9 9 Norte 27 Oeste 0 1019.6 -0.2 67
2019-11-18 11:00:00 21.9 12 Noroeste 36 Noroeste 0 1020.1 0.9 69
2019-11-18 10:00:00 21.1 18 Noroeste 38 Oeste 0 1019.9 1.1 73
2019-11-18 09:00:00 20.4 13 Noroeste 33 Norte 0 1019.8 1.6 70
2019-11-18 08:00:00 19.9 15 Noroeste 39 Noroeste 0 1019.2 1 72
2019-11-18 07:00:00 19.5 13 Norte 42 Norte 0 1018.8 0.5 81
2019-11-18 06:00:00 19.6 15 Norte 48 Norte 0 1018.2 -0.2 81
2019-11-18 05:00:00 19.4 19 Norte 38 Noroeste 0 1018.2 -0.3 82
2019-11-18 04:00:00 19.3 16 Norte 42 Noroeste 0 1018.3 -0.4 83
2019-11-18 03:00:00 20 18 Noroeste 47 Norte 0 1018.4 -1 68
2019-11-18 02:00:00 20 17 Noroeste 45 Oeste 0 1018.5 -0.5 67
2019-11-18 01:00:00 19.8 16 Noroeste 41 Noroeste 0 1018.7 -0.4 70
2019-11-18 00:00:00 19.7 12 Norte 51 Oeste 0 1019.4 0.3 71
2019-11-17 23:00:00 19.5 15 Norte 48 Noroeste 0 1019 0.5 77
2019-11-17 22:00:00 19.4 19 Norte 48 Noroeste 0 1019.1 0.8 77
2019-11-17 21:00:00 19.5 20 Norte 47 Norte 0 1019.1 1 74
2019-11-17 20:00:00 19.9 18 Norte 45 Norte 0 1018.5 0.5 74
2019-11-17 19:00:00 19.8 18 Norte 60 Nordeste 0 1018.3 0.6 76
2019-11-17 18:00:00 19.8 16 Norte 47 Noroeste 0 1018.1 0.7 79
2019-11-17 17:00:00 20.1 19 Noroeste 39 Noroeste 0 1018 -0.3 78
2019-11-17 16:00:00 21.3 12 Noroeste 42 Noroeste 0 1017.7 -1.4 72
2019-11-17 15:00:00 21.7 15 Noroeste 43 Noroeste 0 1017.4 -2.4 67
2019-11-17 14:00:00 22.5 9 Norte 32 Norte 0 1018.3 -2.2 64
2019-11-17 13:00:00 22.1 12 Norte 39 Norte 0 1019.1 -1 73
2019-11-17 12:00:00 21.2 11 Noroeste 41 Noroeste 0 1019.8 -0.1 71
2019-11-17 11:00:00 20 17 Noroeste 40 Oeste 0 1020.5 1 81
2019-11-17 10:00:00 20.4 14 Norte 36 Norte 0 1020.1 1.2 76
2019-11-17 09:00:00 19.8 16 Noroeste 41 Noroeste 0 1019.9 1.4 77
2019-11-17 08:00:00 19 12 Noroeste 30 Noroeste 0 1019.5 1 80
2019-11-17 07:00:00 18.9 12 Noroeste 27 Noroeste 0 1018.9 0.7 79
2019-11-17 06:00:00 18.6 11 Noroeste 33 Norte 0 1018.5 0.1 86
2019-11-17 05:00:00 18.6 14 Norte 32 Norte 0 1018.5 0 89
2019-11-17 04:00:00 19.3 12 Norte 36 Noroeste 0 1018.2 -0.3 76
2019-11-17 03:00:00 19.5 13 Noroeste 41 Noroeste 0 1018.4 0.3 75
2019-11-17 02:00:00 19 13 Norte 42 Nordeste 0 1018.5 0.6 82
2019-11-17 01:00:00 19.8 14 Norte 47 Noroeste 0 1018.5 0.5 73
2019-11-17 00:00:00 19.7 17 Noroeste 55 Noroeste 0 1018.1 0.6 75
2019-11-16 23:00:00 20 19 Noroeste 66 Nordeste 0 1017.9 0.6 71
2019-11-16 22:00:00 19.7 19 Norte 54 Oeste 0 1018 1.3 78
2019-11-16 21:00:00 19.5 18 Noroeste 56 Noroeste 0 1017.5 1.3 80
2019-11-16 20:00:00 19.8 17 Norte 57 Noroeste 0 1017.3 1.1 77
2019-11-16 19:00:00 20.1 19 Norte 48 Norte 0 1016.7 0.5 73
2019-11-16 18:00:00 20.3 19 Norte 55 Nordeste 0 1016.2 -0.1 74
2019-11-16 17:00:00 20.3 21 Norte 56 Nordeste 0 1016.2 -0.2 75
2019-11-16 16:00:00 21.2 14 Norte 50 Noroeste 0 1016.2 -0.6 73
2019-11-16 15:00:00 21.2 18 Norte 59 Norte 0 1016.3 -1.4 76
2019-11-16 14:00:00 21.1 22 Norte 55 Norte 0 1016.4 -1.2 70
2019-11-16 13:00:00 21.6 19 Noroeste 52 Noroeste 0 1016.8 -1.2 63
2019-11-16 12:00:00 21.4 24 Noroeste 59 Noroeste 0 1017.7 -0.4 63
2019-11-16 11:00:00 20.8 29 Noroeste 59 Noroeste 0 1017.6 0.4 61
2019-11-16 10:00:00 20.8 23 Norte 56 Norte 0 1018 1.4 68
2019-11-16 09:00:00 20 19 Norte 53 Este 0 1018.1 2 69
2019-11-16 08:00:00 18.8 22 Noroeste 57 Noroeste 0 1017.2 1.3 83
2019-11-16 07:00:00 18.8 23 Noroeste 59 Noroeste 0 1016.6 0.9 76
2019-11-16 06:00:00 18.6 21 Norte 55 Noroeste 0 1016.1 0 83
2019-11-16 05:00:00 18.8 19 Norte 65 Norte 0 1015.9 0.1 80
2019-11-16 04:00:00 18.8 20 Norte 60 Norte 0 1015.7 -0.2 82
2019-11-16 03:00:00 18.9 15 Norte 50 Noroeste 0 1016.1 0 77
2019-11-16 02:00:00 19.1 16 Norte 57 Noroeste 0 1015.8 -0.5 80
2019-11-16 01:00:00 19.3 22 Norte 64 Noroeste 0 1015.9 -0.4 79
2019-11-16 00:00:00 19.3 22 Norte 63 Noroeste 0 1016.1 0.6 78
2019-11-15 23:00:00 19.3 24 Noroeste 53 Noroeste 0 1016.3 1.3 76
2019-11-15 22:00:00 19.5 20 Norte 53 Norte 0 1016.3 1.7 77
2019-11-15 21:00:00 19.8 21 Noroeste 52 Noroeste 0 1015.5 1.1 74
2019-11-15 20:00:00 19.6 21 Noroeste 53 Noroeste 0 1015 0.5 77
2019-11-15 19:00:00 20 19 Norte 41 Norte 0 1014.6 0.3 71
2019-11-15 18:00:00 20.1 16 Norte 58 Oeste 0 1014.4 -0.2 74
2019-11-15 17:00:00 20.2 13 Norte 51 Noroeste 0 1014.5 -0.4 77
2019-11-15 16:00:00 21 25 Noroeste 55 Noroeste 0 1014.3 -1.1 77
2019-11-15 15:00:00 20.7 13 Noroeste 49 Noroeste 0 1014.6 -1.8 78
2019-11-15 14:00:00 21.4 18 Norte 55 Nordeste 0 1014.9 -1.2 78
2019-11-15 13:00:00 22.2 12 Norte 58 Norte 0 1015.4 -0.8 75
2019-11-15 12:00:00 21.9 15 Norte 52 Noroeste 0 1016.4 0.5 78
2019-11-15 11:00:00 21.1 21 Noroeste 47 Noroeste 0 1016.1 0.8 79
2019-11-15 10:00:00 21.2 20 Noroeste 57 Noroeste 0 1016.2 1.9 81
2019-11-15 09:00:00 20.6 16 Noroeste 50 Noroeste 0 1015.9 1.5 83
2019-11-15 08:00:00 20 21 Norte 53 Nordeste 0 1015.3 0.9 87
2019-11-15 07:00:00 20 16 Norte 62 Noroeste 0 1014.3 0.5 87
2019-11-15 06:00:00 20.5 13 Norte 51 Norte 0 1014.4 -0.3 79
2019-11-15 05:00:00 20.6 14 Norte 53 Norte 0 1014.4 -0.6 74
2019-11-15 04:00:00 20.5 23 Norte 63 Nordeste 0 1013.8 -0.9 73
2019-11-15 03:00:00 20.5 17 Norte 61 Nordeste 0 1014.7 -0.5 78
2019-11-15 02:00:00 20.6 18 Norte 59 Noroeste 0 1015 0.3 83
2019-11-15 01:00:00 20.5 25 Noroeste 65 Noroeste 0 1014.7 -0.4 80
2019-11-15 00:00:00 20.8 26 Noroeste 58 Noroeste 0 1015.2 0.2 81